Time;durP1;ratioP1;P1;durP2;ratioP2;P2;SDS_P1;SDS_P2;PMS_P1;PMS_P2;Temp;Humidity;BMP_temperature;BMP_pressure;BME280_temperature;BME280_humidity;BME280_pressure;Samples;Min_cycle;Max_cycle;Signal;HPM_P1;HPM_P2
2024/01/02 00:02:26;;;;;;;5.45;1.85;;;8.00;99.90;;;;;;6137001;23;20470;-44
2024/01/02 00:04:52;;;;;;;3.05;1.65;;;8.00;99.90;;;;;;6137514;23;20044;-37
2024/01/02 00:07:18;;;;;;;6.18;2.22;;;8.00;99.90;;;;;;6138346;23;20116;-36
2024/01/02 00:09:43;;;;;;;4.90;1.77;;;8.00;99.90;;;;;;6140893;23;20013;-37
2024/01/02 00:12:09;;;;;;;4.97;1.55;;;8.00;99.90;;;;;;6140064;23;20013;-37
2024/01/02 00:14:38;;;;;;;4.50;1.60;;;8.00;99.90;;;;;;6141889;23;20005;-37
2024/01/02 00:17:04;;;;;;;6.13;1.77;;;8.00;99.90;;;;;;6141453;23;20013;-36
2024/01/02 00:19:29;;;;;;;4.32;2.05;;;8.00;99.90;;;;;;6139211;23;20005;-37
2024/01/02 00:21:55;;;;;;;4.78;1.48;;;8.00;99.90;;;;;;6140722;23;20016;-37
2024/01/02 00:24:20;;;;;;;6.60;2.42;;;8.00;99.90;;;;;;6140516;23;20096;-37
2024/01/02 00:26:46;;;;;;;5.93;1.50;;;8.00;99.90;;;;;;6139835;23;20096;-36
2024/01/02 00:29:12;;;;;;;5.90;1.67;;;8.00;99.90;;;;;;6140382;23;20013;-36
2024/01/02 00:31:37;;;;;;;5.65;1.42;;;8.00;99.90;;;;;;6139938;23;20009;-38
2024/01/02 00:34:03;;;;;;;4.30;1.48;;;8.00;99.90;;;;;;6139704;23;20126;-35
2024/01/02 00:36:28;;;;;;;4.20;1.50;;;8.00;99.90;;;;;;6140664;23;20019;-38
2024/01/02 00:38:54;;;;;;;6.00;2.10;;;8.00;99.90;;;;;;6139905;23;20492;-35
2024/01/02 00:41:19;;;;;;;3.90;1.20;;;8.00;99.90;;;;;;6140274;23;20013;-35
2024/01/02 00:43:45;;;;;;;4.07;1.40;;;8.00;99.90;;;;;;6140129;23;20551;-36
2024/01/02 00:46:13;;;;;;;5.22;1.65;;;8.00;99.90;;;;;;6139542;23;20695;-36
2024/01/02 00:48:39;;;;;;;5.00;1.92;;;8.00;99.90;;;;;;6140467;23;20006;-35
2024/01/02 00:51:05;;;;;;;3.90;1.50;;;8.00;99.90;;;;;;6139526;23;20016;-36
2024/01/02 00:53:30;;;;;;;3.35;1.30;;;8.10;99.90;;;;;;6139729;23;20421;-36
2024/01/02 00:55:56;;;;;;;4.10;1.40;;;8.00;99.90;;;;;;6140465;23;20010;-37
2024/01/02 00:58:21;;;;;;;5.30;1.50;;;8.10;99.90;;;;;;6141721;23;20020;-36
2024/01/02 01:00:47;;;;;;;4.35;1.55;;;8.10;99.90;;;;;;6140313;23;20005;-37
2024/01/02 01:03:13;;;;;;;2.15;1.25;;;8.10;99.90;;;;;;6139825;23;20088;-36
2024/01/02 01:05:39;;;;;;;6.05;1.40;;;8.10;99.90;;;;;;6139981;23;20193;-35
2024/01/02 01:08:04;;;;;;;3.40;1.30;;;8.10;99.90;;;;;;6138849;23;20755;-37
2024/01/02 01:10:30;;;;;;;5.45;1.45;;;8.10;99.90;;;;;;6139150;23;20474;-36
2024/01/02 01:12:56;;;;;;;3.42;1.52;;;8.10;99.90;;;;;;6140022;23;20441;-35
2024/01/02 01:15:21;;;;;;;5.40;1.50;;;8.10;99.90;;;;;;6139397;23;20009;-36
2024/01/02 01:17:47;;;;;;;4.93;1.23;;;8.10;99.90;;;;;;6139984;23;20084;-36
2024/01/02 01:20:12;;;;;;;4.97;1.55;;;8.10;99.90;;;;;;6139461;23;20321;-35
2024/01/02 01:22:39;;;;;;;3.88;1.58;;;8.10;99.90;;;;;;6139166;23;20047;-35
2024/01/02 01:25:05;;;;;;;4.43;1.45;;;8.10;99.90;;;;;;6139324;23;20092;-35
2024/01/02 01:27:30;;;;;;;2.50;1.02;;;8.10;99.90;;;;;;6139522;23;20705;-35
2024/01/02 01:29:56;;;;;;;3.45;1.48;;;8.10;99.90;;;;;;6138868;23;20056;-36
2024/01/02 01:32:21;;;;;;;5.38;1.38;;;8.10;99.90;;;;;;6138812;23;20721;-36
2024/01/02 01:34:47;;;;;;;3.30;1.30;;;8.10;99.90;;;;;;6139458;23;20017;-36
2024/01/02 01:37:12;;;;;;;4.55;1.17;;;8.10;99.90;;;;;;6138888;23;20006;-36
2024/01/02 01:39:39;;;;;;;2.70;1.17;;;8.10;99.90;;;;;;6140980;23;20010;-35
2024/01/02 01:42:05;;;;;;;6.63;1.27;;;8.20;99.90;;;;;;6139036;23;20001;-36
2024/01/02 01:44:31;;;;;;;5.25;1.45;;;8.10;99.90;;;;;;6139743;23;20040;-36
2024/01/02 01:46:56;;;;;;;3.88;1.20;;;8.20;99.90;;;;;;6140623;23;20017;-36
2024/01/02 01:49:22;;;;;;;3.03;1.20;;;8.20;99.90;;;;;;6139271;23;20017;-36
2024/01/02 01:51:51;;;;;;;2.70;1.00;;;8.20;99.90;;;;;;6139900;23;20015;-36
2024/01/02 01:54:18;;;;;;;2.70;0.82;;;8.20;99.90;;;;;;6138977;23;20010;-35
2024/01/02 01:56:44;;;;;;;2.13;1.05;;;8.20;99.90;;;;;;6138406;23;20531;-35
2024/01/02 01:59:12;;;;;;;2.15;0.82;;;8.20;99.90;;;;;;6139255;23;20425;-36
2024/01/02 02:01:38;;;;;;;1.15;0.80;;;8.20;99.90;;;;;;6139908;23;20009;-35
2024/01/02 02:04:04;;;;;;;3.80;0.90;;;8.20;99.90;;;;;;6138201;23;20040;-35
2024/01/02 02:06:30;;;;;;;1.63;0.77;;;8.20;99.90;;;;;;6139401;23;20345;-35
2024/01/02 02:08:56;;;;;;;2.97;0.90;;;8.30;99.90;;;;;;6138607;23;20001;-39
2024/01/02 02:11:21;;;;;;;3.45;0.98;;;8.20;99.90;;;;;;6138615;23;20017;-36
2024/01/02 02:13:47;;;;;;;4.35;0.70;;;8.20;99.90;;;;;;6140181;23;20006;-36
2024/01/02 02:16:18;;;;;;;2.75;1.00;;;8.30;99.90;;;;;;6138497;23;20009;-36
2024/01/02 02:18:44;;;;;;;4.10;0.88;;;8.30;99.90;;;;;;6136442;23;20379;-36
2024/01/02 02:21:10;;;;;;;3.38;0.77;;;8.30;99.90;;;;;;6136852;23;20018;-36
2024/01/02 02:23:36;;;;;;;2.33;0.90;;;8.30;99.90;;;;;;6137802;23;20013;-35
2024/01/02 02:26:01;;;;;;;2.53;0.77;;;8.30;99.90;;;;;;6136359;23;20031;-36
2024/01/02 02:28:27;;;;;;;2.58;0.70;;;8.30;99.90;;;;;;6138406;23;20084;-36
2024/01/02 02:30:52;;;;;;;1.35;0.70;;;8.30;99.90;;;;;;6137589;23;20044;-36
2024/01/02 02:33:18;;;;;;;2.30;0.70;;;8.30;99.90;;;;;;6138213;23;20010;-36
2024/01/02 02:35:44;;;;;;;0.57;0.50;;;8.30;99.90;;;;;;6139825;23;20005;-36
2024/01/02 02:38:09;;;;;;;0.90;0.70;;;8.30;99.90;;;;;;6137482;23;20009;-36
2024/01/02 02:40:37;;;;;;;1.92;0.60;;;8.30;99.90;;;;;;6139084;23;20130;-36
2024/01/02 02:43:03;;;;;;;1.52;0.52;;;8.30;99.90;;;;;;6139168;23;20017;-35
2024/01/02 02:45:28;;;;;;;1.67;0.60;;;8.30;99.90;;;;;;6138193;23;20001;-36
2024/01/02 02:47:54;;;;;;;1.05;0.47;;;8.30;99.90;;;;;;6138912;23;20015;-35
2024/01/02 02:50:20;;;;;;;0.50;0.50;;;8.30;99.90;;;;;;6139884;23;20033;-35
2024/01/02 02:52:45;;;;;;;0.90;0.45;;;8.30;99.90;;;;;;6138972;23;20689;-36
2024/01/02 02:55:11;;;;;;;1.35;0.47;;;8.30;99.90;;;;;;6138586;23;20030;-35
2024/01/02 02:57:36;;;;;;;0.88;0.57;;;8.30;99.90;;;;;;6139024;23;20500;-36
2024/01/02 03:00:04;;;;;;;1.45;0.50;;;8.30;99.90;;;;;;6138245;23;20113;-36
2024/01/02 03:02:29;;;;;;;2.55;0.40;;;8.30;99.90;;;;;;6138811;23;20017;-36
2024/01/02 03:04:55;;;;;;;0.57;0.43;;;8.30;99.90;;;;;;6138319;23;20016;-36
2024/01/02 03:07:20;;;;;;;1.52;0.65;;;8.30;99.90;;;;;;6137880;23;20036;-35
2024/01/02 03:09:46;;;;;;;0.73;0.40;;;8.30;99.90;;;;;;6138188;23;20120;-35
2024/01/02 03:12:12;;;;;;;1.15;0.57;;;8.30;99.90;;;;;;6138208;23;20013;-36
2024/01/02 03:14:38;;;;;;;1.63;0.60;;;8.30;99.90;;;;;;6138762;23;20005;-36
2024/01/02 03:17:04;;;;;;;0.40;0.40;;;8.30;99.90;;;;;;6139836;23;20745;-36
2024/01/02 03:19:30;;;;;;;0.55;0.55;;;8.30;99.90;;;;;;6140202;23;20006;-35
2024/01/02 03:21:56;;;;;;;1.02;0.60;;;8.30;99.90;;;;;;6138187;23;20005;-37
2024/01/02 03:24:22;;;;;;;1.48;0.40;;;8.30;99.90;;;;;;6138912;23;20008;-37
2024/01/02 03:26:47;;;;;;;2.60;0.50;;;8.30;99.90;;;;;;6139036;23;20017;-35
2024/01/02 03:29:15;;;;;;;0.73;0.30;;;8.30;99.90;;;;;;6137334;23;20691;-36
2024/01/02 03:31:41;;;;;;;1.38;0.40;;;8.30;99.90;;;;;;6138472;23;20005;-35
2024/01/02 03:34:06;;;;;;;0.60;0.40;;;8.40;99.90;;;;;;6138726;23;20005;-36
2024/01/02 03:36:32;;;;;;;0.45;0.45;;;8.40;99.90;;;;;;6137908;23;20013;-36
2024/01/02 03:38:57;;;;;;;1.45;0.30;;;8.40;99.90;;;;;;6139218;23;20010;-36
2024/01/02 03:41:23;;;;;;;0.40;0.30;;;8.40;99.90;;;;;;6139433;23;20068;-36
2024/01/02 03:43:49;;;;;;;0.40;0.30;;;8.40;99.90;;;;;;6139864;23;20014;-36
2024/01/02 03:46:14;;;;;;;0.73;0.38;;;8.40;99.90;;;;;;6138643;23;20241;-35
2024/01/02 03:48:40;;;;;;;0.60;0.50;;;8.40;99.90;;;;;;6135642;23;20012;-35
2024/01/02 03:51:05;;;;;;;0.38;0.28;;;8.40;99.90;;;;;;6138789;23;20490;-35
2024/01/02 03:53:31;;;;;;;0.22;0.22;;;8.40;99.90;;;;;;6138503;23;20012;-35
2024/01/02 03:55:57;;;;;;;0.30;0.30;;;8.40;99.90;;;;;;6137779;23;20009;-37
2024/01/02 03:58:27;;;;;;;0.40;0.40;;;8.40;99.90;;;;;;6138864;23;20642;-36
2024/01/02 04:00:54;;;;;;;0.30;0.30;;;8.40;99.90;;;;;;6139596;23;20005;-36
2024/01/02 04:03:20;;;;;;;0.45;0.20;;;8.40;99.90;;;;;;6138828;23;20018;-35
2024/01/02 04:05:46;;;;;;;1.20;0.30;;;8.40;99.90;;;;;;6138566;23;20624;-40
2024/01/02 04:08:11;;;;;;;1.33;0.20;;;8.50;99.90;;;;;;6139000;23;20005;-36
2024/01/02 04:10:39;;;;;;;0.38;0.20;;;8.50;99.90;;;;;;6137875;23;20042;-36
2024/01/02 04:13:05;;;;;;;0.20;0.20;;;8.50;99.90;;;;;;6138320;23;20029;-36
2024/01/02 04:15:30;;;;;;;0.20;0.20;;;8.50;99.90;;;;;;6139260;23;20613;-37
2024/01/02 04:17:56;;;;;;;0.75;0.40;;;8.50;99.90;;;;;;6137307;23;20006;-36
2024/01/02 04:20:21;;;;;;;0.30;0.30;;;8.50;99.90;;;;;;6138686;23;20041;-36
2024/01/02 04:22:49;;;;;;;0.20;0.20;;;8.50;99.90;;;;;;6137909;23;20005;-37
2024/01/02 04:25:15;;;;;;;0.20;0.20;;;8.50;99.90;;;;;;6137453;23;20036;-36
2024/01/02 04:27:43;;;;;;;1.77;0.25;;;8.50;99.90;;;;;;6138813;23;20320;-37
2024/01/02 04:30:09;;;;;;;0.20;0.20;;;8.50;99.90;;;;;;6136425;23;20020;-36
2024/01/02 04:32:35;;;;;;;0.20;0.20;;;8.60;99.90;;;;;;6138619;23;20014;-35
2024/01/02 04:35:01;;;;;;;0.30;0.30;;;8.60;99.90;;;;;;6138658;23;20005;-36
2024/01/02 04:37:26;;;;;;;0.55;0.20;;;8.60;99.90;;;;;;6138873;23;20013;-35
2024/01/02 04:39:52;;;;;;;0.20;0.20;;;8.60;99.90;;;;;;6137678;23;20084;-35
2024/01/02 04:42:17;;;;;;;0.20;0.20;;;8.60;99.90;;;;;;6138005;23;20633;-36
2024/01/02 04:44:43;;;;;;;0.20;0.20;;;8.70;99.90;;;;;;6138239;23;20005;-35
2024/01/02 04:47:09;;;;;;;0.13;0.10;;;8.70;99.90;;;;;;6137159;23;20306;-36
2024/01/02 04:49:34;;;;;;;0.30;0.10;;;8.70;99.90;;;;;;6138862;23;20005;-36
2024/01/02 04:52:00;;;;;;;0.20;0.20;;;8.70;99.90;;;;;;6137154;23;20012;-36
2024/01/02 04:54:26;;;;;;;0.30;0.30;;;8.70;99.90;;;;;;6140086;23;20006;-36
2024/01/02 04:56:53;;;;;;;0.30;0.30;;;8.80;99.90;;;;;;6141079;23;20063;-36
2024/01/02 04:59:18;;;;;;;0.30;0.30;;;8.80;99.90;;;;;;6139238;23;20002;-36
2024/01/02 05:01:44;;;;;;;0.30;0.30;;;8.80;99.90;;;;;;6140490;23;20005;-36
2024/01/02 05:04:09;;;;;;;0.30;0.30;;;8.80;99.90;;;;;;6140692;23;20009;-36
2024/01/02 05:06:35;;;;;;;0.30;0.30;;;8.80;99.90;;;;;;6140173;23;20023;-36
2024/01/02 05:09:01;;;;;;;0.40;0.40;;;8.80;99.90;;;;;;6140566;23;20075;-36
2024/01/02 05:11:26;;;;;;;0.20;0.20;;;8.80;99.90;;;;;;6140716;23;20005;-36
2024/01/02 05:13:52;;;;;;;0.80;0.20;;;8.90;99.90;;;;;;6140608;23;20032;-36
2024/01/02 05:16:17;;;;;;;0.15;0.15;;;8.90;99.90;;;;;;6140835;23;20021;-36
2024/01/02 05:18:43;;;;;;;0.30;0.30;;;8.90;99.90;;;;;;6141285;23;20740;-36
2024/01/02 05:21:10;;;;;;;0.30;0.30;;;8.90;99.90;;;;;;6139791;23;20016;-36
2024/01/02 05:23:38;;;;;;;0.40;0.40;;;9.00;99.90;;;;;;6135470;23;20081;-35
2024/01/02 05:26:04;;;;;;;0.32;0.30;;;9.00;99.90;;;;;;6141129;23;20040;-36
2024/01/02 05:28:30;;;;;;;0.30;0.30;;;9.00;99.90;;;;;;6139711;23;20048;-36
2024/01/02 05:30:56;;;;;;;0.30;0.30;;;9.10;99.90;;;;;;6140110;23;20015;-36
2024/01/02 05:33:22;;;;;;;0.20;0.20;;;9.10;99.90;;;;;;6140338;23;20006;-36
2024/01/02 05:35:47;;;;;;;1.17;0.30;;;9.20;99.90;;;;;;6139812;23;20036;-36
2024/01/02 05:38:16;;;;;;;0.30;0.30;;;9.20;99.90;;;;;;6140153;23;20002;-36
2024/01/02 05:40:42;;;;;;;0.30;0.30;;;9.20;99.90;;;;;;6140188;23;20088;-36
2024/01/02 05:43:08;;;;;;;0.30;0.30;;;9.20;99.90;;;;;;6137588;23;20044;-36
2024/01/02 05:45:35;;;;;;;0.30;0.30;;;9.20;99.90;;;;;;6141592;23;20064;-36
2024/01/02 05:48:01;;;;;;;0.40;0.40;;;9.30;99.90;;;;;;6139298;23;20015;-37
2024/01/02 05:50:27;;;;;;;0.65;0.30;;;9.40;99.90;;;;;;6139709;23;20005;-36
2024/01/02 05:52:55;;;;;;;0.40;0.40;;;9.30;99.90;;;;;;6140095;23;20016;-36
2024/01/02 05:55:21;;;;;;;0.40;0.40;;;9.40;99.90;;;;;;6139555;23;20348;-36
2024/01/02 05:57:46;;;;;;;0.50;0.50;;;9.50;99.90;;;;;;6139969;23;20780;-44
2024/01/02 06:00:12;;;;;;;0.40;0.40;;;9.50;99.90;;;;;;6139479;23;20704;-36
2024/01/02 06:02:38;;;;;;;0.50;0.50;;;9.60;99.90;;;;;;6138060;23;20040;-36
2024/01/02 06:05:04;;;;;;;0.45;0.43;;;9.60;99.90;;;;;;6137106;23;20040;-37
2024/01/02 06:07:30;;;;;;;0.60;0.60;;;9.70;99.90;;;;;;6138322;23;20320;-37
2024/01/02 06:09:56;;;;;;;0.50;0.50;;;9.70;99.90;;;;;;6137383;23;20425;-37
2024/01/02 06:12:21;;;;;;;0.60;0.60;;;9.80;99.90;;;;;;6138052;23;20033;-36
2024/01/02 06:14:47;;;;;;;0.60;0.50;;;9.80;99.90;;;;;;6138481;23;20012;-37
2024/01/02 06:17:13;;;;;;;0.50;0.50;;;9.80;99.90;;;;;;6137687;23;20461;-36
2024/01/02 06:19:39;;;;;;;0.52;0.52;;;9.90;99.90;;;;;;6139709;23;20006;-36
2024/01/02 06:22:05;;;;;;;0.50;0.50;;;9.90;99.90;;;;;;6139875;23;20090;-36
2024/01/02 06:24:30;;;;;;;0.80;0.80;;;10.00;99.90;;;;;;6140138;23;20002;-35
2024/01/02 06:26:56;;;;;;;0.70;0.70;;;10.00;99.90;;;;;;6140086;23;20399;-36
2024/01/02 06:29:22;;;;;;;0.80;0.80;;;10.10;99.90;;;;;;6140130;23;20005;-37
2024/01/02 06:31:47;;;;;;;0.90;0.90;;;10.10;99.90;;;;;;6139245;23;20095;-37
2024/01/02 06:34:13;;;;;;;1.00;1.00;;;10.10;99.90;;;;;;6138311;23;19997;-37
2024/01/02 06:36:39;;;;;;;1.17;1.10;;;10.20;99.90;;;;;;6139851;23;20005;-36
2024/01/02 06:39:04;;;;;;;1.15;1.15;;;10.20;99.90;;;;;;6138639;23;20794;-37
2024/01/02 06:41:30;;;;;;;1.15;1.05;;;10.30;99.90;;;;;;6139194;23;20701;-36
2024/01/02 06:43:56;;;;;;;1.10;1.10;;;10.30;99.90;;;;;;6138412;23;20091;-37
2024/01/02 06:46:21;;;;;;;1.35;1.17;;;10.40;99.90;;;;;;6138140;23;20100;-36
2024/01/02 06:48:47;;;;;;;2.03;1.80;;;10.40;99.90;;;;;;6140060;23;20492;-36
2024/01/02 06:51:13;;;;;;;2.08;1.98;;;10.50;99.90;;;;;;6138872;23;20447;-37
2024/01/02 06:53:39;;;;;;;3.08;2.20;;;10.50;99.90;;;;;;6138650;23;20021;-36
2024/01/02 06:56:07;;;;;;;4.00;2.30;;;10.60;99.90;;;;;;6136366;23;20005;-36
2024/01/02 06:58:33;;;;;;;2.78;2.58;;;10.60;99.90;;;;;;6137471;23;20484;-36
2024/01/02 07:00:59;;;;;;;5.72;3.25;;;10.70;99.90;;;;;;6137187;23;20043;-36
2024/01/02 07:03:24;;;;;;;5.57;3.67;;;10.70;99.90;;;;;;6138131;23;20089;-36
2024/01/02 07:05:50;;;;;;;7.25;4.00;;;10.80;99.90;;;;;;6137709;23;20024;-37
2024/01/02 07:08:15;;;;;;;4.07;3.40;;;10.80;99.90;;;;;;6138429;23;20010;-37
2024/01/02 07:10:41;;;;;;;4.13;2.97;;;10.90;99.90;;;;;;6138770;23;20504;-36
2024/01/02 07:13:07;;;;;;;5.53;3.40;;;11.00;99.90;;;;;;6136854;23;20036;-38
2024/01/02 07:15:33;;;;;;;3.92;3.25;;;11.00;99.90;;;;;;6138368;23;20021;-36
2024/01/02 07:17:58;;;;;;;4.68;3.83;;;11.10;99.90;;;;;;6138477;23;20008;-36
2024/01/02 07:20:24;;;;;;;5.45;3.78;;;11.10;99.90;;;;;;6138079;23;20016;-37
2024/01/02 07:22:50;;;;;;;6.45;3.00;;;11.10;99.90;;;;;;6138783;23;20012;-38
2024/01/02 07:25:16;;;;;;;4.80;2.80;;;11.10;99.90;;;;;;6137848;23;20144;-36
2024/01/02 07:27:43;;;;;;;5.45;2.90;;;11.20;99.90;;;;;;6137077;23;20100;-36
2024/01/02 07:30:09;;;;;;;9.38;3.72;;;11.20;99.90;;;;;;6137863;23;20001;-37
2024/01/02 07:32:35;;;;;;;11.73;3.88;;;11.20;99.90;;;;;;6138651;23;20006;-36
2024/01/02 07:35:01;;;;;;;9.85;3.35;;;11.20;99.90;;;;;;6138017;23;20013;-36
2024/01/02 07:37:27;;;;;;;11.85;3.58;;;11.20;99.90;;;;;;6137095;23;20006;-36
2024/01/02 07:39:54;;;;;;;10.88;3.28;;;11.30;99.90;;;;;;6137074;23;20724;-35
2024/01/02 07:42:20;;;;;;;12.60;2.78;;;11.30;99.90;;;;;;6133073;23;20016;-37
2024/01/02 07:44:45;;;;;;;13.30;3.35;;;11.30;99.90;;;;;;6137139;23;20121;-36
2024/01/02 07:47:11;;;;;;;12.95;3.10;;;11.40;99.90;;;;;;6135846;23;20089;-36
2024/01/02 07:49:37;;;;;;;12.38;3.67;;;11.40;99.90;;;;;;6137072;23;20025;-36
2024/01/02 07:52:02;;;;;;;11.85;3.20;;;11.40;99.90;;;;;;6138207;23;20119;-37
2024/01/02 07:54:28;;;;;;;9.00;3.22;;;11.40;99.90;;;;;;6139453;23;20005;-36
2024/01/02 07:56:54;;;;;;;14.20;2.72;;;11.40;99.90;;;;;;6138284;23;20732;-36
2024/01/02 07:59:22;;;;;;;13.20;2.83;;;11.50;99.90;;;;;;6138285;23;20060;-35
2024/01/02 08:01:48;;;;;;;11.80;3.42;;;11.50;99.90;;;;;;6138156;23;20064;-33
2024/01/02 08:04:13;;;;;;;9.45;2.58;;;11.50;99.90;;;;;;6138709;23;20022;-34
2024/01/02 08:06:39;;;;;;;9.07;2.30;;;11.50;99.90;;;;;;6139048;23;20087;-35
2024/01/02 08:09:04;;;;;;;13.30;2.97;;;11.50;99.90;;;;;;6137490;23;20405;-35
2024/01/02 08:11:33;;;;;;;13.32;3.80;;;11.50;99.90;;;;;;6138735;23;20013;-35
2024/01/02 08:13:58;;;;;;;16.88;3.42;;;11.50;99.90;;;;;;6138438;23;20524;-35
2024/01/02 08:16:24;;;;;;;14.60;3.17;;;11.50;99.90;;;;;;6139320;23;20065;-36
2024/01/02 08:18:50;;;;;;;11.07;2.20;;;11.50;99.90;;;;;;6139769;23;20005;-35
2024/01/02 08:21:15;;;;;;;13.00;2.60;;;11.50;99.90;;;;;;6138414;23;20013;-35
2024/01/02 08:23:41;;;;;;;9.05;2.55;;;11.50;99.90;;;;;;6138368;23;20005;-46
2024/01/02 08:26:12;;;;;;;11.43;2.63;;;11.60;99.90;;;;;;6138976;23;20333;-35
2024/01/02 08:28:38;;;;;;;7.07;2.30;;;11.60;99.90;;;;;;6140998;23;20013;-37
2024/01/02 08:31:04;;;;;;;9.73;2.40;;;11.60;99.90;;;;;;6140353;23;20010;-36
2024/01/02 08:33:30;;;;;;;10.52;2.65;;;11.50;99.90;;;;;;6141264;23;20072;-37
2024/01/02 08:35:55;;;;;;;10.00;2.97;;;11.60;99.90;;;;;;6140974;23;20701;-40
2024/01/02 08:38:21;;;;;;;11.43;2.33;;;11.60;99.90;;;;;;6139854;23;20484;-36
2024/01/02 08:40:47;;;;;;;11.45;2.63;;;11.60;99.90;;;;;;6141507;23;20302;-41
2024/01/02 08:43:13;;;;;;;9.65;2.45;;;11.60;99.90;;;;;;6140339;23;20009;-37
2024/01/02 08:45:39;;;;;;;10.05;2.80;;;11.60;99.90;;;;;;6141511;23;20072;-36
2024/01/02 08:48:05;;;;;;;11.13;2.78;;;11.60;99.90;;;;;;6141639;23;20005;-36
2024/01/02 08:50:31;;;;;;;12.65;3.40;;;11.60;99.90;;;;;;6140922;23;20060;-36
2024/01/02 08:52:58;;;;;;;10.30;3.13;;;11.60;99.90;;;;;;6139723;23;20701;-36
2024/01/02 08:55:26;;;;;;;13.45;2.95;;;11.60;99.90;;;;;;6139498;23;20029;-35
2024/01/02 08:57:52;;;;;;;10.43;2.78;;;11.60;99.90;;;;;;6139434;23;20040;-35
2024/01/02 09:00:18;;;;;;;11.45;2.80;;;11.60;99.90;;;;;;6137951;23;20052;-35
2024/01/02 09:02:44;;;;;;;10.30;2.88;;;11.60;99.90;;;;;;6140810;23;20059;-35
2024/01/02 09:05:10;;;;;;;13.43;3.15;;;11.60;99.90;;;;;;6138657;23;20731;-35
2024/01/02 09:07:36;;;;;;;9.80;2.63;;;11.60;99.90;;;;;;6140712;23;20017;-41
2024/01/02 09:10:02;;;;;;;13.07;2.80;;;11.60;99.90;;;;;;6140221;23;20005;-36
2024/01/02 09:12:28;;;;;;;8.57;2.25;;;11.60;99.90;;;;;;6139619;23;20013;-35
2024/01/02 09:14:54;;;;;;;10.52;2.38;;;11.60;99.90;;;;;;6140984;23;20001;-35
2024/01/02 09:17:20;;;;;;;7.40;2.45;;;11.70;99.90;;;;;;6140956;23;20010;-35
2024/01/02 09:19:47;;;;;;;11.93;2.13;;;11.70;99.90;;;;;;6140559;23;20112;-35
2024/01/02 09:22:13;;;;;;;14.35;2.80;;;11.70;99.90;;;;;;6140220;23;20016;-35
2024/01/02 09:24:40;;;;;;;8.88;2.45;;;11.70;99.90;;;;;;6140267;23;20009;-36
2024/01/02 09:27:08;;;;;;;9.30;2.42;;;11.80;99.90;;;;;;6139371;23;20022;-35
2024/01/02 09:29:34;;;;;;;7.00;2.58;;;11.80;99.90;;;;;;6141159;23;20008;-36
2024/01/02 09:31:59;;;;;;;7.13;2.50;;;11.80;99.90;;;;;;6140637;23;20001;-37
2024/01/02 09:34:25;;;;;;;7.32;2.00;;;11.80;99.90;;;;;;6139616;23;20006;-36
2024/01/02 09:36:52;;;;;;;7.78;2.42;;;11.80;99.90;;;;;;6140290;23;20477;-36
2024/01/02 09:39:18;;;;;;;10.30;2.72;;;11.80;99.90;;;;;;6139256;23;20005;-36
2024/01/02 09:42:23;;;;;;;9.70;2.25;;;11.90;99.90;;;;;;6139590;23;20080;-35
2024/01/02 09:45:11;;;;;;;6.30;2.30;;;11.90;99.90;;;;;;6140828;23;20009;-36
2024/01/02 09:48:02;;;;;;;7.03;2.70;;;11.90;99.90;;;;;;6137653;23;20013;-36
2024/01/02 09:50:29;;;;;;;6.85;1.98;;;12.00;99.90;;;;;;6140222;23;20002;-36
2024/01/02 09:53:10;;;;;;;6.32;2.20;;;12.00;99.90;;;;;;6140416;23;20016;-36
2024/01/02 09:55:55;;;;;;;6.75;2.17;;;12.00;99.90;;;;;;6139873;23;20436;-36
2024/01/02 09:58:58;;;;;;;11.10;2.90;;;12.00;99.90;;;;;;6141621;23;20084;-38
2024/01/02 10:01:39;;;;;;;11.70;3.55;;;12.00;99.90;;;;;;6139750;23;20009;-36
2024/01/02 10:04:37;;;;;;;14.05;3.58;;;12.10;99.90;;;;;;6140108;23;20021;-36
2024/01/02 10:07:31;;;;;;;11.15;3.22;;;12.10;99.90;;;;;;6139740;23;20013;-36
2024/01/02 10:10:10;;;;;;;11.05;4.38;;;12.10;99.90;;;;;;6140151;23;20017;-36
2024/01/02 10:13:05;;;;;;;7.20;3.10;;;12.10;99.90;;;;;;6140638;23;20430;-36
2024/01/02 10:15:42;;;;;;;7.13;3.53;;;12.10;99.90;;;;;;6139180;23;20016;-36
2024/01/02 10:18:26;;;;;;;7.22;3.15;;;12.10;99.90;;;;;;6140183;23;20038;-37
2024/01/02 10:21:20;;;;;;;7.45;3.65;;;12.10;99.90;;;;;;6141683;23;20014;-37
2024/01/02 10:23:51;;;;;;;9.77;5.03;;;12.20;99.90;;;;;;6106302;23;20010;-36
2024/01/02 10:26:19;;;;;;;10.70;4.95;;;12.20;99.90;;;;;;6139282;23;20022;-36
2024/01/02 10:28:49;;;;;;;9.48;4.85;;;12.20;99.90;;;;;;6140798;23;20337;-36
2024/01/02 10:31:25;;;;;;;7.38;4.43;;;12.20;99.90;;;;;;6138447;23;20484;-36
2024/01/02 10:33:58;;;;;;;7.63;4.53;;;12.20;99.90;;;;;;6140104;23;20005;-37
2024/01/02 10:36:26;;;;;;;4.97;3.72;;;12.30;99.90;;;;;;6139352;23;20127;-37
2024/01/02 10:39:01;;;;;;;5.43;3.90;;;12.20;99.90;;;;;;6141269;23;20201;-37
2024/01/02 10:41:45;;;;;;;4.47;3.72;;;12.30;99.90;;;;;;6139985;23;20009;-37
2024/01/02 10:44:19;;;;;;;5.15;3.47;;;12.20;99.90;;;;;;6138594;23;20351;-37
2024/01/02 10:46:49;;;;;;;6.65;4.65;;;12.30;99.90;;;;;;6139362;23;20025;-37
2024/01/02 10:49:34;;;;;;;6.57;4.93;;;12.30;99.90;;;;;;6138478;23;20005;-36
2024/01/02 10:52:25;;;;;;;7.35;5.15;;;12.30;99.90;;;;;;6136766;23;20010;-36
2024/01/02 10:54:56;;;;;;;6.05;4.85;;;12.30;99.90;;;;;;6137586;23;20016;-36
2024/01/02 10:57:59;;;;;;;5.97;4.78;;;12.30;99.90;;;;;;6137845;23;20114;-36
2024/01/02 11:00:28;;;;;;;7.00;5.07;;;12.30;99.90;;;;;;6121482;23;20088;-36
2024/01/02 11:03:11;;;;;;;5.15;4.43;;;12.30;99.90;;;;;;6137475;23;20456;-36
2024/01/02 11:05:45;;;;;;;5.03;3.92;;;12.30;99.90;;;;;;6138174;23;20013;-36
2024/01/02 11:08:40;;;;;;;3.10;2.75;;;12.30;99.90;;;;;;6139262;23;20012;-36
2024/01/02 11:11:09;;;;;;;3.40;2.85;;;12.30;99.90;;;;;;6139037;23;20695;-36
2024/01/02 11:13:39;;;;;;;3.00;2.70;;;12.30;99.90;;;;;;6138999;23;20063;-36
2024/01/02 11:16:17;;;;;;;2.75;2.55;;;12.30;99.90;;;;;;6139568;23;20006;-35
2024/01/02 11:18:46;;;;;;;3.00;1.98;;;12.20;99.90;;;;;;6140259;23;20183;-37
2024/01/02 11:21:51;;;;;;;2.20;2.00;;;12.20;99.90;;;;;;6139110;23;20009;-35
2024/01/02 11:24:25;;;;;;;2.03;1.88;;;12.20;99.90;;;;;;6047818;23;20037;-36
2024/01/02 11:26:56;;;;;;;1.50;1.40;;;12.30;99.90;;;;;;6127552;23;20028;-37
2024/01/02 11:29:23;;;;;;;1.27;1.10;;;12.20;99.90;;;;;;6138786;23;20397;-37
2024/01/02 11:31:50;;;;;;;1.30;1.20;;;12.20;99.90;;;;;;6140078;23;20084;-37
2024/01/02 11:34:37;;;;;;;1.10;1.00;;;12.20;99.90;;;;;;6139886;23;20002;-35
2024/01/02 11:37:38;;;;;;;1.13;1.00;;;12.20;99.90;;;;;;6139475;23;20009;-36
2024/01/02 11:40:12;;;;;;;1.05;0.85;;;12.20;99.90;;;;;;6138376;23;20006;-35
2024/01/02 11:42:57;;;;;;;0.60;0.60;;;12.20;99.90;;;;;;6139266;23;20099;-35
2024/01/02 11:45:26;;;;;;;0.80;0.70;;;12.20;99.90;;;;;;6139563;23;20121;-37
2024/01/02 11:48:16;;;;;;;0.70;0.70;;;12.20;99.90;;;;;;6138554;23;20096;-35
2024/01/02 11:50:52;;;;;;;1.90;0.77;;;12.30;99.90;;;;;;6139082;23;20010;-36
2024/01/02 11:53:28;;;;;;;0.70;0.70;;;12.30;99.90;;;;;;6138897;23;20005;-36
2024/01/02 11:56:05;;;;;;;1.00;0.90;;;12.30;99.90;;;;;;6138745;23;20053;-36
2024/01/02 11:58:41;;;;;;;0.70;0.70;;;12.30;99.90;;;;;;6138507;23;19998;-37
2024/01/02 12:01:16;;;;;;;0.82;0.77;;;12.30;99.90;;;;;;6138258;23;20016;-36
2024/01/02 12:04:06;;;;;;;0.60;0.60;;;12.30;99.90;;;;;;6140285;23;20094;-36
2024/01/02 12:06:53;;;;;;;0.70;0.70;;;12.30;99.90;;;;;;6140647;23;20017;-37
2024/01/02 12:09:19;;;;;;;0.50;0.50;;;12.30;99.90;;;;;;6140199;23;20083;-36
2024/01/02 12:12:04;;;;;;;0.52;0.50;;;12.30;99.90;;;;;;6141258;23;20014;-36
2024/01/02 12:14:59;;;;;;;0.60;0.60;;;12.30;99.90;;;;;;6140709;23;20009;-36
2024/01/02 12:17:28;;;;;;;0.50;0.50;;;12.30;99.90;;;;;;6140049;23;20500;-36
2024/01/02 12:20:05;;;;;;;1.33;0.85;;;12.30;99.90;;;;;;6140361;23;20635;-36
2024/01/02 12:22:34;;;;;;;1.20;0.52;;;12.30;99.90;;;;;;6140446;23;20005;-36
2024/01/02 12:25:04;;;;;;;0.45;0.45;;;12.30;99.90;;;;;;6142112;23;20048;-36
2024/01/02 12:27:32;;;;;;;0.45;0.43;;;12.30;99.90;;;;;;6140989;23;20009;-35
2024/01/02 12:30:06;;;;;;;0.50;0.50;;;12.30;99.90;;;;;;6139751;23;20423;-35
2024/01/02 12:32:44;;;;;;;0.47;0.47;;;12.30;99.90;;;;;;6140926;23;20016;-37
2024/01/02 12:35:29;;;;;;;0.70;0.65;;;12.30;99.90;;;;;;6139480;23;20021;-36
2024/01/02 12:38:10;;;;;;;0.52;0.50;;;12.20;99.90;;;;;;6140135;23;20033;-35
2024/01/02 12:40:41;;;;;;;0.60;0.60;;;12.20;99.90;;;;;;6141265;23;20613;-35
2024/01/02 12:43:11;;;;;;;0.50;0.50;;;12.20;99.90;;;;;;6140189;23;20005;-37
2024/01/02 12:45:46;;;;;;;0.95;0.80;;;12.20;99.90;;;;;;6141097;23;20065;-37
2024/01/02 12:48:24;;;;;;;0.70;0.70;;;12.20;99.90;;;;;;6139680;23;20014;-36
2024/01/02 12:50:53;;;;;;;0.68;0.60;;;12.20;99.90;;;;;;6140704;23;20084;-36
2024/01/02 12:53:20;;;;;;;0.70;0.70;;;12.20;99.90;;;;;;6139248;23;20033;-36
2024/01/02 12:55:57;;;;;;;0.60;0.60;;;12.10;99.90;;;;;;6140308;23;20508;-35
2024/01/02 12:58:25;;;;;;;0.50;0.50;;;12.10;99.90;;;;;;6139815;23;20010;-37
2024/01/02 13:00:54;;;;;;;0.45;0.45;;;12.10;99.90;;;;;;6140614;23;20056;-36